首页
METAR-TAF:

METAR-TAF

机场 :

武里南市, 泰国

纬度: 15-13-46N, 经度: 103-15-04E, 海拔: 180米

当前天气观测

该预报发布于1小时和38分钟前的13:00 UTC
风速4节,风向西,在南转西南西转西北之间变化
温度 28°C
湿度 74%
气压 1007 hPa
能见度10公里或以上
少量云层高于2000英尺, 积雨云.
散云层高于3000英尺
多云层高于10000英尺
雷暴,

METAR: VTUO 171300Z 27004KT 210V300 9999 TS FEW020CB SCT030 BKN100 28/23 Q1007 NOSIG

时间: 21:38 (14:38 UTC)

预报

该预报发布于3小时和38分钟前的11:00 UTC
预报有效从17日的 12点(UTC)到 18日的 12点(UTC)
风速5节,风向南转西南
能見度: 9000
散云层高于3000英尺
短暂存在
从 17日的 12点(UTC)到 17日的 16点(UTC)
少量云层高于1800英尺, 积雨云.
多云层高于3000英尺
雷暴, 小雨,

TAF: VTUO 171100Z 1712/1812 21005KT 9000 SCT030 TEMPO 1712/1716 -TSRA FEW018CB BKN030

超过4000个机场的气象观测和天气预报(METAR&TAF报告)。

可查询的气象台以黄色和红色小点在地图上表示。

将鼠标移到小点上方,可查看气象台名称。

然后点击查看天气观测和预报。

如需切换地图:点击带黑十字的绿色按钮放大地图;点击带横线的绿色按钮缩小地图;或者点击绿色箭头查看邻近地区的地图。


METAR-TAF: